Time;durP1;ratioP1;P1;durP2;ratioP2;P2;SDS_P1;SDS_P2;PMS_P1;PMS_P2;Temp;Humidity;BMP_temperature;BMP_pressure;BME280_temperature;BME280_humidity;BME280_pressure;Samples;Min_cycle;Max_cycle;Signal;HPM_P1;HPM_P2
2022/11/11 00:02:38;;;;;;;22.98;18.37;;;;;;;8.55;94.26;100618.61;1669473;84;21095;-77
2022/11/11 00:05:24;;;;;;;24.30;18.32;;;;;;;8.45;94.67;100624.70;1675369;84;21104;-76
2022/11/11 00:08:09;;;;;;;22.90;17.05;;;;;;;8.45;94.78;100616.75;1675943;84;21715;-76
2022/11/11 00:11:08;;;;;;;21.48;17.10;;;;;;;8.52;94.85;100617.54;1671780;84;21015;-77
2022/11/11 00:13:53;;;;;;;24.77;18.95;;;;;;;8.45;95.20;100622.05;1675884;84;21157;-78
2022/11/11 00:26:56;;;;;;;22.03;17.43;;;;;;;8.40;96.19;100622.92;1834485;76;21000;-78
2022/11/11 00:29:46;;;;;;;18.87;16.02;;;;;;;8.40;96.26;100624.25;1816339;77;20950;-78
2022/11/11 00:32:32;;;;;;;24.05;16.32;;;;;;;8.48;96.01;100624.08;1812474;76;21095;-76
2022/11/11 00:41:26;;;;;;;19.12;15.45;;;;;;;8.40;96.79;100626.89;1830288;76;20086;-76
2022/11/11 00:44:12;;;;;;;20.17;16.35;;;;;;;8.37;97.11;100625.82;1815393;76;21962;-77
2022/11/11 00:53:15;;;;;;;16.93;14.58;;;;;;;8.45;97.17;100622.05;1830802;76;21051;-78
2022/11/11 00:56:01;;;;;;;19.60;15.25;;;;;;;8.38;97.64;100632.81;1827729;76;21014;-76
2022/11/11 00:58:46;;;;;;;17.12;13.78;;;;;;;8.36;97.94;100633.89;1824361;76;21044;-75
2022/11/11 01:01:34;;;;;;;19.20;14.87;;;;;;;8.46;97.67;100632.18;1815201;78;21691;-77
2022/11/11 01:04:19;;;;;;;21.75;15.65;;;;;;;8.43;97.72;100629.29;1823966;76;21086;-76
2022/11/11 01:07:04;;;;;;;17.32;14.05;;;;;;;8.33;98.05;100635.00;1817058;76;21142;-77
2022/11/11 01:09:49;;;;;;;18.50;14.33;;;;;;;8.39;98.27;100638.94;1822581;76;21025;-74
2022/11/11 01:12:35;;;;;;;16.85;14.15;;;;;;;8.50;98.15;100636.23;1817095;76;21603;-79
2022/11/11 01:15:20;;;;;;;19.27;13.78;;;;;;;8.47;98.32;100632.52;1822591;76;21105;-76
2022/11/11 01:18:06;;;;;;;14.75;12.63;;;;;;;8.42;98.51;100639.55;1825921;76;21027;-78
2022/11/11 01:21:15;;;;;;;17.82;12.68;;;;;;;8.51;98.12;100641.87;1816719;76;22102;-78
2022/11/11 01:24:02;;;;;;;16.00;13.60;;;;;;;8.54;98.10;100642.11;1815624;76;21046;-76
2022/11/11 01:26:47;;;;;;;14.45;11.88;;;;;;;8.46;98.24;100646.25;1830659;76;21484;-78
2022/11/11 01:29:32;;;;;;;13.83;12.10;;;;;;;8.48;98.33;100646.59;1827176;76;21034;-78
2022/11/11 01:32:19;;;;;;;14.95;13.05;;;;;;;8.53;98.14;100645.72;1821163;77;21036;-77
2022/11/11 01:35:05;;;;;;;14.70;12.28;;;;;;;8.49;98.51;100642.48;1820650;76;21522;-79
2022/11/11 01:37:52;;;;;;;12.82;11.22;;;;;;;8.55;98.43;100645.09;1804663;76;21078;-79
2022/11/11 01:40:42;;;;;;;13.00;11.57;;;;;;;8.66;98.14;100643.69;1811088;77;21089;-77
2022/11/11 01:43:28;;;;;;;14.23;11.78;;;;;;;8.63;98.22;100639.96;1815151;76;21053;-78
2022/11/11 01:46:30;;;;;;;12.47;10.10;;;;;;;8.56;98.40;100644.14;1830150;76;21002;-78
2022/11/11 01:49:28;;;;;;;11.00;9.63;;;;;;;8.61;98.06;100645.39;1824837;76;21523;-76
2022/11/11 01:52:35;;;;;;;13.98;11.97;;;;;;;8.60;97.96;100653.00;1806366;76;20975;-76
2022/11/11 01:55:20;;;;;;;12.25;9.98;;;;;;;8.54;98.46;100651.38;1822692;76;21035;-77
2022/11/11 01:58:10;;;;;;;11.48;9.35;;;;;;;8.58;98.53;100652.78;1817109;76;21051;-76
2022/11/11 02:00:57;;;;;;;12.28;10.03;;;;;;;8.63;98.22;100646.59;1842695;77;21023;-77
2022/11/11 02:05:40;;;;;;;11.48;9.50;;;;;;;8.55;98.58;100652.55;1842190;76;21132;-78
2022/11/11 02:06:30;;;;;;;11.10;9.40;;;;;;;8.53;98.69;100653.16;1816236;76;21070;-77
2022/11/11 02:09:16;;;;;;;13.40;10.75;;;;;;;8.62;98.48;100653.70;1818737;76;21026;-78
2022/11/11 02:15:08;;;;;;;10.70;8.85;;;;;;;8.59;99.01;100660.58;1814641;76;21011;-78
2022/11/11 02:17:54;;;;;;;11.25;9.58;;;;;;;8.64;98.69;100668.14;1820815;76;21006;-76
2022/11/11 02:20:43;;;;;;;10.82;9.50;;;;;;;8.71;98.63;100671.09;1831838;76;21031;-77
2022/11/11 02:24:07;;;;;;;10.08;8.65;;;;;;;8.68;98.95;100667.40;1818490;76;21046;-75
2022/11/11 02:26:53;;;;;;;11.88;9.50;;;;;;;8.66;99.14;100668.84;1834803;76;20978;-77
2022/11/11 02:29:38;;;;;;;9.98;8.53;;;;;;;8.76;98.91;100672.86;1826600;76;21057;-78
2022/11/11 02:32:23;;;;;;;12.15;9.38;;;;;;;8.83;98.72;100666.06;1811042;76;21126;-78
2022/11/11 02:35:15;;;;;;;11.03;9.35;;;;;;;8.83;98.97;100668.71;1824217;76;21072;-79
2022/11/11 02:38:07;;;;;;;10.95;9.30;;;;;;;8.81;98.78;100670.66;1822527;76;21117;-79
2022/11/11 02:43:56;;;;;;;10.50;9.43;;;;;;;8.99;98.19;100669.03;1821409;76;21049;-78
2022/11/11 02:46:41;;;;;;;10.82;9.70;;;;;;;8.92;98.22;100671.86;1821840;76;21751;-78
2022/11/11 02:49:26;;;;;;;11.08;8.65;;;;;;;8.86;98.26;100669.75;1812732;76;21057;-80
2022/11/11 02:52:10;;;;;;;11.15;9.53;;;;;;;8.95;98.02;100664.14;1817761;76;21057;-80
2022/11/11 02:54:55;;;;;;;10.32;9.28;;;;;;;9.00;97.66;100666.74;1827151;76;21447;-78
2022/11/11 02:57:41;;;;;;;11.60;9.48;;;;;;;8.94;98.00;100669.91;1820212;78;21085;-78
2022/11/11 03:00:26;;;;;;;9.83;8.43;;;;;;;8.90;98.49;100664.53;1815901;76;21518;-76
2022/11/11 03:03:11;;;;;;;9.83;8.43;;;;;;;8.98;98.26;100669.16;1819169;76;21061;-77
2022/11/11 03:05:56;;;;;;;11.35;9.08;;;;;;;9.07;97.80;100671.00;1817337;76;21049;-77
2022/11/11 03:08:42;;;;;;;11.55;10.18;;;;;;;9.08;98.02;100672.69;1812580;76;21041;-77
2022/11/11 03:11:27;;;;;;;10.58;8.98;;;;;;;9.07;98.12;100675.47;1820347;76;21029;-77
2022/11/11 03:14:12;;;;;;;10.32;8.85;;;;;;;9.14;98.00;100673.97;1808541;76;21751;-75
2022/11/11 03:23:11;;;;;;;11.03;9.13;;;;;;;9.16;97.52;100670.69;1820747;76;20320;-77
2022/11/11 03:25:57;;;;;;;10.88;9.75;;;;;;;9.18;97.38;100674.87;1811626;76;21076;-76
2022/11/11 03:28:42;;;;;;;10.58;9.48;;;;;;;9.27;96.81;100681.64;1825331;76;21147;-78
2022/11/11 03:31:26;;;;;;;14.07;10.48;;;;;;;9.21;96.88;100681.23;1825603;76;21057;-76
2022/11/11 03:34:17;;;;;;;10.60;9.20;;;;;;;9.15;97.02;100683.58;1818308;76;21033;-78
2022/11/11 03:40:12;;;;;;;14.20;11.65;;;;;;;9.28;96.78;100680.69;1822131;76;20974;-79
2022/11/11 03:42:57;;;;;;;15.70;13.00;;;;;;;9.27;97.04;100691.75;1804634;76;21041;-74
2022/11/11 03:45:43;;;;;;;13.28;10.68;;;;;;;9.24;97.00;100688.91;1822851;78;20985;-76
2022/11/11 03:48:30;;;;;;;13.40;11.05;;;;;;;9.30;96.97;100696.80;1824954;76;21008;-77
2022/11/11 03:51:15;;;;;;;13.25;11.12;;;;;;;9.42;96.71;100697.02;1823488;76;21021;-77
2022/11/11 03:54:00;;;;;;;14.38;12.00;;;;;;;9.45;96.52;100697.25;1826058;76;21081;-77
2022/11/11 03:56:45;;;;;;;15.45;11.30;;;;;;;9.42;96.33;100702.82;1821377;76;22104;-78
2022/11/11 03:59:30;;;;;;;12.65;10.60;;;;;;;9.44;96.16;100710.16;1818934;76;21025;-77
2022/11/11 04:11:30;;;;;;;15.30;11.97;;;;;;;9.48;95.69;100718.18;1824922;78;21179;-77
2022/11/11 04:17:19;;;;;;;16.07;13.30;;;;;;;9.53;96.03;100727.91;1818103;76;21039;-75
2022/11/11 04:23:09;;;;;;;18.20;13.53;;;;;;;9.54;95.41;100726.08;1817768;76;21598;-77
2022/11/11 04:25:55;;;;;;;17.87;14.23;;;;;;;9.61;94.98;100724.56;1822500;76;21078;-77
2022/11/11 04:34:54;;;;;;;16.87;13.32;;;;;;;9.60;94.76;100731.69;1826441;76;21137;-76
2022/11/11 04:37:50;;;;;;;17.02;14.07;;;;;;;9.68;94.58;100738.10;1830213;76;21476;-78
2022/11/11 04:46:34;;;;;;;18.37;14.38;;;;;;;9.64;94.52;100752.16;1770322;76;21055;-77
2022/11/11 04:49:19;;;;;;;18.62;13.93;;;;;;;9.68;94.05;100743.41;1806607;76;21022;-77
2022/11/11 04:58:12;;;;;;;16.82;13.93;;;;;;;9.49;94.46;100742.91;1819565;76;20984;-77
2022/11/11 05:00:57;;;;;;;17.23;13.70;;;;;;;9.46;94.62;100745.33;1820848;76;21012;-76
2022/11/11 05:03:42;;;;;;;17.75;14.13;;;;;;;9.37;94.81;100747.00;1832404;76;21035;-76
2022/11/11 05:09:30;;;;;;;18.23;14.33;;;;;;;9.46;94.86;100741.35;1817314;76;21202;-76
2022/11/11 05:12:14;;;;;;;18.05;14.47;;;;;;;9.44;95.09;100741.98;1813208;76;21070;-75
2022/11/11 05:21:22;;;;;;;19.98;15.80;;;;;;;9.51;94.76;100760.86;1758708;79;27238;-77
2022/11/11 05:27:12;;;;;;;18.45;13.32;;;;;;;9.33;95.33;100773.44;1776065;79;21076;-76
2022/11/11 05:29:57;;;;;;;17.35;14.30;;;;;;;9.39;95.47;100776.05;1779073;79;21029;-76
2022/11/11 05:32:42;;;;;;;19.15;15.10;;;;;;;9.46;95.14;100779.81;1774868;79;21026;-76
2022/11/11 05:35:27;;;;;;;22.65;16.30;;;;;;;9.45;95.22;100785.61;1768692;79;21627;-74
2022/11/11 05:38:21;;;;;;;19.27;14.87;;;;;;;9.40;95.10;100792.30;1774248;79;21079;-76
2022/11/11 05:41:07;;;;;;;20.00;15.25;;;;;;;9.40;95.08;100796.27;1778432;79;26640;-75
2022/11/11 05:43:51;;;;;;;18.65;15.58;;;;;;;9.47;94.96;100798.74;1765942;80;21105;-77
2022/11/11 05:46:37;;;;;;;22.25;15.98;;;;;;;9.45;95.17;100803.34;1772389;79;21038;-75
2022/11/11 05:49:23;;;;;;;20.27;14.65;;;;;;;9.42;95.44;100811.06;1743753;80;21604;-77
2022/11/11 05:52:12;;;;;;;20.12;14.55;;;;;;;9.48;95.17;100816.81;1750204;80;21135;-77
2022/11/11 05:54:59;;;;;;;21.52;15.93;;;;;;;9.55;94.79;100819.30;1756642;81;21019;-78
2022/11/11 05:57:44;;;;;;;20.60;15.72;;;;;;;9.48;94.93;100825.61;1753254;80;21005;-78
2022/11/11 06:00:29;;;;;;;21.35;15.32;;;;;;;9.43;95.10;100830.49;1756485;80;21520;-76
2022/11/11 06:03:14;;;;;;;23.90;17.32;;;;;;;9.45;94.90;100832.52;1762366;80;21064;-77
2022/11/11 06:06:00;;;;;;;22.80;17.65;;;;;;;9.53;95.26;100825.22;1747688;80;21120;-77
2022/11/11 06:08:45;;;;;;;23.30;17.60;;;;;;;9.58;95.54;100842.41;1742743;80;21064;-78
2022/11/11 06:11:31;;;;;;;22.05;16.30;;;;;;;9.55;95.21;100838.69;1751595;80;21049;-75
2022/11/11 06:14:18;;;;;;;20.90;17.60;;;;;;;9.58;94.72;100844.20;1746820;80;21593;-76
2022/11/11 06:17:03;;;;;;;21.37;16.93;;;;;;;9.61;94.60;100851.91;1761152;79;21124;-75
2022/11/11 06:19:49;;;;;;;24.37;17.92;;;;;;;9.60;94.92;100856.38;1738076;78;21136;-76
2022/11/11 06:28:50;;;;;;;24.35;18.48;;;;;;;9.80;94.53;100865.73;1785429;78;20230;-75
2022/11/11 06:31:36;;;;;;;23.27;17.92;;;;;;;9.73;94.36;100873.87;1782207;78;21048;-76
2022/11/11 06:34:21;;;;;;;23.07;16.95;;;;;;;9.65;94.73;100874.54;1789048;78;21632;-75
2022/11/11 06:37:06;;;;;;;25.82;18.73;;;;;;;9.67;94.27;100874.41;1799514;78;21510;-76
2022/11/11 06:39:51;;;;;;;22.93;18.17;;;;;;;9.75;94.31;100878.55;1815726;78;21606;-77
2022/11/11 06:42:37;;;;;;;24.52;18.50;;;;;;;9.78;94.67;100883.60;1808250;78;21073;-75
2022/11/11 06:45:24;;;;;;;27.13;18.27;;;;;;;9.78;94.65;100884.93;1812913;79;21483;-76
2022/11/11 06:48:08;;;;;;;22.90;18.30;;;;;;;9.81;94.26;100880.20;1814344;77;21224;-78
2022/11/11 06:50:54;;;;;;;27.62;19.20;;;;;;;9.91;93.75;100890.84;1777250;79;21397;-77
2022/11/11 06:53:41;;;;;;;26.35;19.45;;;;;;;9.85;94.28;100887.41;1783336;78;21035;-75
2022/11/11 06:56:28;;;;;;;27.70;19.60;;;;;;;9.84;94.55;100889.20;1795383;78;21120;-75
2022/11/11 06:59:13;;;;;;;26.17;17.60;;;;;;;9.91;94.42;100885.53;1792460;78;21755;-76
2022/11/11 07:01:58;;;;;;;26.25;18.80;;;;;;;10.03;94.13;100892.39;1713701;79;21880;-73
2022/11/11 07:04:44;;;;;;;29.72;18.52;;;;;;;10.04;94.15;100899.86;1659955;84;21491;-74
2022/11/11 07:07:30;;;;;;;24.82;18.32;;;;;;;10.00;94.24;100892.65;1661317;86;21084;-77
2022/11/11 07:10:16;;;;;;;22.77;17.60;;;;;;;10.07;94.05;100899.60;1661583;84;21057;-75
2022/11/11 07:13:02;;;;;;;25.43;18.75;;;;;;;10.18;93.65;100899.98;1662299;84;21060;-74
2022/11/11 07:15:46;;;;;;;28.52;21.12;;;;;;;10.16;93.75;100897.46;1663301;84;21198;-78
2022/11/11 07:18:31;;;;;;;25.43;18.52;;;;;;;10.12;93.48;100904.48;1664126;84;21571;-76
2022/11/11 07:21:17;;;;;;;25.05;19.50;;;;;;;10.14;93.61;100901.20;1663546;85;21056;-76
2022/11/11 07:24:02;;;;;;;24.35;18.42;;;;;;;10.23;93.42;100905.20;1660926;84;21119;-75
2022/11/11 07:26:47;;;;;;;28.30;21.62;;;;;;;10.21;93.40;100907.66;1659970;84;21106;-77
2022/11/11 07:29:32;;;;;;;26.33;17.85;;;;;;;10.16;93.43;100909.41;1660393;84;21785;-77
2022/11/11 07:32:18;;;;;;;28.20;18.52;;;;;;;10.16;93.19;100917.38;1658996;84;21083;-82
2022/11/11 07:35:04;;;;;;;30.95;21.75;;;;;;;10.21;93.33;100917.78;1663263;84;21098;-78
2022/11/11 07:37:50;;;;;;;29.92;22.05;;;;;;;10.21;93.31;100915.63;1659340;84;21098;-77
2022/11/11 07:40:37;;;;;;;25.55;18.48;;;;;;;10.18;93.72;100923.39;1666240;84;21158;-79
2022/11/11 07:43:24;;;;;;;25.02;19.70;;;;;;;10.26;93.33;100924.03;1664871;84;21231;-80
2022/11/11 07:46:09;;;;;;;25.27;20.17;;;;;;;10.34;92.90;100926.87;1659352;84;21162;-82
2022/11/11 07:48:54;;;;;;;32.53;21.75;;;;;;;10.35;93.20;100933.01;1660207;84;21031;-80
2022/11/11 07:51:40;;;;;;;32.15;23.22;;;;;;;10.29;93.00;100929.05;1666737;84;21084;-78
2022/11/11 07:54:25;;;;;;;28.50;20.72;;;;;;;10.32;93.47;100924.84;1657616;84;21087;-78
2022/11/11 07:57:11;;;;;;;28.87;20.62;;;;;;;10.43;93.01;100938.00;1660872;84;21469;-84
2022/11/11 07:59:56;;;;;;;27.30;20.68;;;;;;;10.38;93.04;100930.92;1674577;84;21624;-80
2022/11/11 08:02:47;;;;;;;30.30;19.73;;;;;;;10.31;92.89;100934.27;1661655;84;21121;-75
2022/11/11 08:05:32;;;;;;;30.32;20.40;;;;;;;10.30;93.03;100937.42;1665596;84;21069;-78
2022/11/11 08:08:23;;;;;;;31.80;20.92;;;;;;;10.40;92.92;100938.76;1665946;84;21133;-79
2022/11/11 08:11:05;;;;;;;31.30;22.87;;;;;;;10.38;93.21;100942.88;1661502;84;22142;-78
2022/11/11 08:13:50;;;;;;;33.78;26.00;;;;;;;10.36;93.40;100947.48;1664173;84;21108;-78
2022/11/11 08:16:36;;;;;;;31.77;21.87;;;;;;;10.37;93.23;100942.54;1664983;84;21027;-80
2022/11/11 08:19:24;;;;;;;31.27;21.77;;;;;;;10.52;93.05;100954.08;1652663;84;21132;-78
2022/11/11 08:22:08;;;;;;;29.82;21.15;;;;;;;10.52;93.21;100956.24;1661888;84;21022;-77
2022/11/11 08:24:53;;;;;;;32.15;21.27;;;;;;;10.50;92.94;100957.37;1661623;84;21168;-76
2022/11/11 08:27:40;;;;;;;33.67;22.60;;;;;;;10.50;92.44;100960.02;1664445;84;21088;-77
2022/11/11 08:30:25;;;;;;;31.37;22.73;;;;;;;10.58;92.45;100960.17;1658681;84;21613;-75
2022/11/11 08:33:11;;;;;;;33.83;24.20;;;;;;;10.53;92.14;100961.09;1664766;84;21338;-77
2022/11/11 08:35:58;;;;;;;32.03;21.50;;;;;;;10.41;92.55;100962.53;1659747;84;21073;-76
2022/11/11 08:38:44;;;;;;;28.32;21.93;;;;;;;10.45;92.47;100960.92;1662548;84;21433;-77
2022/11/11 08:41:29;;;;;;;31.40;20.45;;;;;;;10.53;92.37;100959.77;1664434;84;21085;-79
2022/11/11 08:44:14;;;;;;;32.08;21.42;;;;;;;10.54;92.50;100960.09;1605475;87;21109;-76
2022/11/11 08:46:59;;;;;;;24.90;19.30;;;;;;;10.53;92.40;100954.45;1614509;87;21079;-74
2022/11/11 08:49:44;;;;;;;29.37;21.15;;;;;;;10.62;92.55;100958.91;1594932;87;21107;-76
2022/11/11 08:52:30;;;;;;;25.32;18.82;;;;;;;10.75;91.90;100956.82;1604950;87;21550;-75
2022/11/11 08:55:15;;;;;;;27.45;19.90;;;;;;;10.70;91.54;100951.10;1637339;86;21089;-75
2022/11/11 08:58:04;;;;;;;25.02;18.98;;;;;;;10.67;92.09;100952.70;1615255;87;21133;-76
2022/11/11 09:00:49;;;;;;;21.97;19.10;;;;;;;10.76;91.64;100954.53;1610695;87;21069;-79
2022/11/11 09:03:36;;;;;;;26.75;19.17;;;;;;;10.84;91.02;100949.02;1633952;85;21571;-76
2022/11/11 09:06:21;;;;;;;26.37;19.57;;;;;;;10.76;90.92;100952.37;1604942;87;21163;-75
2022/11/11 09:09:07;;;;;;;26.15;19.60;;;;;;;10.69;90.94;100953.89;1630507;86;22105;-77
2022/11/11 09:11:52;;;;;;;26.42;19.82;;;;;;;10.72;91.33;100950.94;1610866;87;21360;-75
2022/11/11 09:14:37;;;;;;;31.95;21.25;;;;;;;10.87;91.23;100956.19;1603092;87;21066;-76
2022/11/11 09:17:23;;;;;;;25.40;19.27;;;;;;;10.88;91.14;100954.39;1604780;87;21074;-76
2022/11/11 09:20:11;;;;;;;24.30;18.40;;;;;;;10.90;91.06;100953.77;1623713;86;21106;-73
2022/11/11 09:22:56;;;;;;;27.70;19.65;;;;;;;10.90;90.12;100951.93;1604211;87;21104;-74
2022/11/11 09:25:41;;;;;;;30.25;19.85;;;;;;;10.96;90.10;100948.70;1616467;86;21707;-74
2022/11/11 09:28:26;;;;;;;23.80;19.42;;;;;;;11.00;90.72;100950.09;1619227;87;21568;-78
2022/11/11 09:31:12;;;;;;;24.12;18.00;;;;;;;11.03;90.39;100943.67;1617641;86;21091;-82
2022/11/11 09:33:58;;;;;;;24.25;19.60;;;;;;;11.09;90.47;100944.44;1624718;86;21166;-80
2022/11/11 09:36:43;;;;;;;26.57;19.25;;;;;;;11.24;89.97;100942.15;1604168;88;21043;-77
2022/11/11 09:39:28;;;;;;;23.98;18.92;;;;;;;11.18;89.43;100941.39;1612422;87;21086;-78
2022/11/11 09:42:40;;;;;;;25.92;18.17;;;;;;;11.12;89.34;100932.66;1609141;86;21068;-79
2022/11/11 09:45:46;;;;;;;22.67;18.32;;;;;;;11.12;89.07;100941.97;1624043;87;21689;-78
2022/11/11 09:48:53;;;;;;;25.92;19.30;;;;;;;11.18;88.99;100940.06;1623135;86;21345;-78
2022/11/11 09:51:48;;;;;;;23.10;17.85;;;;;;;11.14;88.84;100946.16;1624266;86;21086;-80
2022/11/11 09:54:53;;;;;;;25.02;19.27;;;;;;;11.09;88.65;100943.11;1627490;87;21051;-77
2022/11/11 09:57:43;;;;;;;24.90;17.40;;;;;;;11.14;89.27;100943.50;1624487;87;21042;-78
2022/11/11 10:00:32;;;;;;;22.10;18.48;;;;;;;11.28;89.12;100944.03;1621411;86;21426;-77
2022/11/11 10:03:19;;;;;;;25.48;18.40;;;;;;;11.29;88.88;100947.06;1623531;86;21082;-80
2022/11/11 10:06:10;;;;;;;23.70;17.37;;;;;;;11.26;88.39;100946.86;1657843;84;21583;-78
2022/11/11 10:09:01;;;;;;;19.95;15.70;;;;;;;11.30;88.55;100942.07;1657749;84;21132;-80
2022/11/11 10:12:04;;;;;;;23.87;17.20;;;;;;;11.37;88.17;100944.02;1659270;84;21051;-79
2022/11/11 10:14:51;;;;;;;25.17;18.73;;;;;;;11.30;87.87;100946.06;1662260;84;21086;-79
2022/11/11 10:17:46;;;;;;;25.00;19.30;;;;;;;11.23;88.14;100948.97;1649432;84;21153;-79
2022/11/11 10:20:36;;;;;;;20.77;15.50;;;;;;;11.17;88.09;100939.23;1655123;84;28551;-80
2022/11/11 10:23:31;;;;;;;21.73;16.23;;;;;;;11.24;88.33;100946.64;1657821;84;21043;-83
2022/11/11 10:26:31;;;;;;;21.55;16.35;;;;;;;11.31;87.84;100945.09;1644403;84;21565;-84
2022/11/11 10:29:21;;;;;;;25.30;20.85;;;;;;;11.23;87.26;100951.63;1657026;84;21073;-79
2022/11/11 10:32:20;;;;;;;20.92;16.85;;;;;;;11.14;87.53;100954.64;1661758;84;21219;-78
2022/11/11 10:35:24;;;;;;;18.30;15.23;;;;;;;11.16;87.62;100948.21;1658004;84;21103;-76
2022/11/11 10:38:17;;;;;;;21.52;15.93;;;;;;;11.24;87.74;100939.98;1657188;84;21126;-79
2022/11/11 10:41:20;;;;;;;21.90;18.10;;;;;;;11.24;87.74;100939.98;1648986;84;21142;-79
2022/11/11 10:44:26;;;;;;;20.68;16.32;;;;;;;11.23;87.90;100939.66;1662029;84;21063;-77
2022/11/11 10:47:35;;;;;;;20.32;14.65;;;;;;;11.26;87.98;100932.70;1656901;84;21268;-77
2022/11/11 10:50:36;;;;;;;20.23;14.83;;;;;;;11.36;87.39;100932.20;1661983;84;21032;-79
2022/11/11 10:53:32;;;;;;;18.95;14.68;;;;;;;11.44;87.10;100942.96;1663891;84;21050;-79
2022/11/11 10:56:35;;;;;;;20.57;16.23;;;;;;;11.43;87.19;100940.44;1664915;84;21084;-77
2022/11/11 10:59:40;;;;;;;23.00;16.80;;;;;;;11.40;87.14;100936.25;1660681;85;21145;-80
2022/11/11 11:02:36;;;;;;;21.10;15.63;;;;;;;11.39;87.27;100939.88;1655078;84;21950;-84
2022/11/11 11:05:29;;;;;;;17.73;15.25;;;;;;;11.43;86.55;100935.95;1652132;85;21159;-80
2022/11/11 11:08:40;;;;;;;20.15;16.17;;;;;;;11.45;86.63;100932.65;1643757;85;21488;-81
2022/11/11 11:11:30;;;;;;;22.32;16.52;;;;;;;11.42;86.92;100928.97;1661726;85;21021;-81
2022/11/11 11:14:27;;;;;;;21.00;14.45;;;;;;;11.46;87.76;100933.02;1643568;85;21123;-81
2022/11/11 11:17:21;;;;;;;18.42;13.78;;;;;;;11.58;86.79;100931.84;1611502;87;21891;-82
2022/11/11 11:20:18;;;;;;;17.98;14.98;;;;;;;11.72;86.78;100931.84;1587180;89;21083;-80
2022/11/11 11:23:03;;;;;;;17.77;13.88;;;;;;;11.77;86.88;100930.93;1620573;87;21066;-78
2022/11/11 11:25:56;;;;;;;17.10;13.90;;;;;;;11.84;86.36;100925.01;1629229;87;21481;-80
2022/11/11 11:29:02;;;;;;;16.70;14.13;;;;;;;11.96;85.69;100919.88;1613724;87;21095;-81
2022/11/11 11:31:48;;;;;;;18.37;12.93;;;;;;;12.59;86.29;100922.55;1629931;87;21581;-79
2022/11/11 11:34:46;;;;;;;17.62;14.68;;;;;;;13.47;86.73;100922.23;1621141;87;21095;-81
2022/11/11 11:37:35;;;;;;;14.25;12.37;;;;;;;14.04;85.30;100915.83;1624133;87;21197;-83
2022/11/11 11:40:20;;;;;;;15.50;13.18;;;;;;;14.46;82.65;100920.75;1597492;87;21080;-83
2022/11/11 11:43:23;;;;;;;14.50;12.63;;;;;;;14.64;80.69;100924.16;1617088;87;21094;-80
2022/11/11 11:46:36;;;;;;;16.30;12.13;;;;;;;14.61;79.36;100923.15;1557888;87;21348;-79
2022/11/11 11:49:46;;;;;;;17.07;12.85;;;;;;;14.47;77.25;100925.12;1603627;87;21091;-81
2022/11/11 11:52:59;;;;;;;12.63;11.33;;;;;;;14.19;76.56;100924.03;1615978;87;21065;-79
2022/11/11 11:56:22;;;;;;;13.00;10.55;;;;;;;14.25;77.21;100927.38;1616369;87;21038;-82
2022/11/11 11:59:29;;;;;;;12.25;10.93;;;;;;;14.95;76.78;100928.86;1617658;87;21033;-76
2022/11/11 12:02:41;;;;;;;12.25;10.23;;;;;;;15.32;74.09;100922.13;1623300;87;21119;-77
2022/11/11 12:05:44;;;;;;;11.20;10.10;;;;;;;15.35;73.42;100921.77;1610124;87;21728;-77
2022/11/11 12:08:48;;;;;;;13.98;11.12;;;;;;;15.21;72.51;100919.28;1610071;87;21589;-76
2022/11/11 12:11:43;;;;;;;14.55;10.08;;;;;;;15.36;73.72;100919.95;1612985;87;21149;-77
2022/11/11 12:15:17;;;;;;;10.40;8.45;;;;;;;15.78;71.48;100919.69;1610261;87;21573;-77
2022/11/11 12:18:29;;;;;;;10.28;9.23;;;;;;;16.81;70.03;100926.60;1580954;88;21223;-79
2022/11/11 12:21:15;;;;;;;9.90;7.15;;;;;;;18.73;73.35;100914.59;1610967;87;21080;-75
2022/11/11 12:24:39;;;;;;;8.53;7.67;;;;;;;20.40;62.36;100908.88;1610597;87;21103;-78
2022/11/11 12:28:00;;;;;;;7.45;6.78;;;;;;;20.65;56.88;100910.50;1604139;87;21117;-78
2022/11/11 12:31:12;;;;;;;8.45;7.55;;;;;;;20.09;57.76;100912.08;1602630;87;21104;-77
2022/11/11 12:36:04;;;;;;;6.47;5.67;;;;;;;19.36;58.75;100910.67;1790480;78;23292;-78
2022/11/11 12:39:06;;;;;;;6.45;5.67;;;;;;;18.83;57.85;100915.16;1775506;80;21045;-77
2022/11/11 12:42:21;;;;;;;6.30;5.70;;;;;;;17.78;57.88;100923.66;1769102;78;21131;-78
2022/11/11 12:45:23;;;;;;;8.70;6.72;;;;;;;16.78;59.68;100933.66;1756079;80;21101;-77
2022/11/11 12:48:36;;;;;;;8.58;6.55;;;;;;;16.03;62.68;100936.49;1781151;80;21061;-78
2022/11/11 12:52:18;;;;;;;6.78;5.67;;;;;;;15.64;63.35;100936.42;1766924;78;20907;-92
2022/11/11 12:55:18;;;;;;;6.90;5.87;;;;;;;15.22;63.86;100938.84;1725265;81;21546;-84
2022/11/11 12:58:46;;;;;;;6.90;6.20;;;;;;;14.66;64.89;100948.91;1722256;81;21151;-86
2022/11/11 13:01:37;;;;;;;8.28;6.70;;;;;;;14.26;66.44;100950.96;1685672;83;21142;-87
2022/11/11 13:05:07;;;;;;;8.88;7.00;;;;;;;13.98;67.69;100958.36;1707081;81;21051;-84
2022/11/11 13:08:37;;;;;;;10.70;7.47;;;;;;;13.80;68.02;100957.95;1690955;83;21073;-88
2022/11/11 13:12:02;;;;;;;9.38;7.62;;;;;;;13.45;69.05;100962.94;1690408;83;21049;-84
2022/11/11 13:14:53;;;;;;;9.98;8.88;;;;;;;13.16;70.36;100972.03;1691412;81;21322;-84
2022/11/11 13:17:40;;;;;;;9.83;8.00;;;;;;;12.95;71.35;100973.69;1688696;83;21693;-84
2022/11/11 13:20:55;;;;;;;10.45;8.75;;;;;;;12.86;71.94;100978.10;1656272;83;21200;-89
2022/11/11 13:23:40;;;;;;;11.97;9.73;;;;;;;12.79;72.48;100977.89;1655652;85;21553;-88
2022/11/11 13:26:45;;;;;;;13.32;9.93;;;;;;;12.71;73.72;100982.29;1656132;85;21064;-82
2022/11/11 13:30:15;;;;;;;11.40;9.45;;;;;;;12.86;74.00;100979.94;1655751;85;22335;-84
2022/11/11 13:33:11;;;;;;;12.15;8.18;;;;;;;12.86;73.66;100983.94;1656187;85;21084;-85
2022/11/11 13:35:58;;;;;;;10.82;8.38;;;;;;;12.71;73.74;100988.48;1652404;85;21584;-86
2022/11/11 13:38:58;;;;;;;10.58;7.92;;;;;;;12.53;74.07;100994.28;1656224;85;21053;-83
2022/11/11 13:41:43;;;;;;;10.95;8.35;;;;;;;12.46;74.33;100987.39;1652193;85;21070;-80
2022/11/11 13:44:53;;;;;;;11.38;8.90;;;;;;;12.44;74.97;100997.83;1617489;85;21259;-80
2022/11/11 13:47:39;;;;;;;12.30;7.53;;;;;;;12.34;75.31;100997.89;1649231;85;21636;-83
2022/11/11 13:50:37;;;;;;;11.18;7.85;;;;;;;12.18;75.83;101010.53;1631670;85;22368;-85
2022/11/11 13:53:28;;;;;;;10.55;7.42;;;;;;;12.00;76.61;101005.98;1656847;83;21079;-84
2022/11/11 13:56:31;;;;;;;9.13;7.80;;;;;;;11.82;77.18;101011.72;1658717;85;21072;-79
2022/11/11 13:59:27;;;;;;;10.25;7.70;;;;;;;11.79;77.66;101014.66;1657024;85;21125;-82
2022/11/11 14:02:25;;;;;;;8.18;7.12;;;;;;;11.70;78.38;101015.02;1654658;85;21048;-87
2022/11/11 14:05:21;;;;;;;9.43;7.55;;;;;;;11.58;78.93;101019.67;1655565;85;21112;-83
2022/11/11 14:08:06;;;;;;;8.75;7.37;;;;;;;11.48;79.32;101018.86;1651615;85;21688;-87
2022/11/11 14:10:57;;;;;;;12.30;7.75;;;;;;;11.39;79.58;101022.36;1650645;85;21314;-86
2022/11/11 14:13:42;;;;;;;8.93;7.55;;;;;;;11.37;79.72;101028.32;1658066;85;21179;-86
2022/11/11 14:16:40;;;;;;;11.03;8.35;;;;;;;11.45;79.87;101031.60;1654304;85;21114;-84
2022/11/11 14:19:28;;;;;;;9.93;8.78;;;;;;;11.40;80.15;101034.70;1649361;85;21061;-85
2022/11/11 14:22:31;;;;;;;12.70;9.05;;;;;;;11.33;80.54;101031.75;1655948;85;21124;-84
2022/11/11 14:25:26;;;;;;;10.80;8.43;;;;;;;11.27;80.74;101032.32;1662487;85;21113;-82
2022/11/11 14:28:32;;;;;;;11.63;8.45;;;;;;;11.18;81.18;101027.37;1661016;85;22075;-84
2022/11/11 14:31:24;;;;;;;12.15;9.15;;;;;;;11.14;81.58;101029.94;1645534;84;21066;-85
2022/11/11 14:34:38;;;;;;;14.63;9.35;;;;;;;11.15;81.67;101038.78;1656202;85;21536;-84
2022/11/11 14:37:57;;;;;;;10.23;8.63;;;;;;;11.10;82.00;101033.03;1657490;85;21085;-79
2022/11/11 14:40:42;;;;;;;11.40;9.45;;;;;;;10.99;82.35;101036.65;1656795;85;21600;-81
2022/11/11 14:43:40;;;;;;;11.73;8.05;;;;;;;10.90;82.52;101034.35;1632537;85;21648;-80